sensor_id;sensor_type;location;lat;lon;timestamp;pressure;altitude;pressure_sealevel;temperature;humidity
71774;BME280;59607;52.130;5.430;2023-04-22T00:01:10;100967.25;;;8.23;100.00
71774;BME280;59607;52.130;5.430;2023-04-22T00:03:37;100972.91;;;8.19;100.00
71774;BME280;59607;52.130;5.430;2023-04-22T00:06:24;100970.75;;;8.14;100.00
71774;BME280;59607;52.130;5.430;2023-04-22T00:08:50;100964.69;;;8.13;100.00
71774;BME280;59607;52.130;5.430;2023-04-22T00:11:20;100951.38;;;8.07;100.00
71774;BME280;59607;52.130;5.430;2023-04-22T00:13:47;100960.91;;;7.98;100.00
71774;BME280;59607;52.130;5.430;2023-04-22T00:16:30;100956.06;;;7.93;100.00
71774;BME280;59607;52.130;5.430;2023-04-22T00:19:00;100961.97;;;7.95;100.00
71774;BME280;59607;52.130;5.430;2023-04-22T00:21:27;100952.25;;;7.87;100.00
71774;BME280;59607;52.130;5.430;2023-04-22T00:23:57;100950.34;;;7.89;100.00
71774;BME280;59607;52.130;5.430;2023-04-22T00:26:24;100952.53;;;7.84;100.00
71774;BME280;59607;52.130;5.430;2023-04-22T00:28:50;100959.13;;;7.78;100.00
71774;BME280;59607;52.130;5.430;2023-04-22T00:31:16;100954.47;;;7.82;100.00
71774;BME280;59607;52.130;5.430;2023-04-22T00:33:52;100958.34;;;7.78;100.00
71774;BME280;59607;52.130;5.430;2023-04-22T00:36:18;100958.47;;;7.76;100.00
71774;BME280;59607;52.130;5.430;2023-04-22T00:38:48;100955.03;;;7.76;100.00
71774;BME280;59607;52.130;5.430;2023-04-22T00:41:18;100953.81;;;7.70;100.00
71774;BME280;59607;52.130;5.430;2023-04-22T00:43:54;100955.75;;;7.68;100.00
71774;BME280;59607;52.130;5.430;2023-04-22T00:46:20;100954.63;;;7.61;100.00
71774;BME280;59607;52.130;5.430;2023-04-22T00:48:49;100958.66;;;7.55;100.00
71774;BME280;59607;52.130;5.430;2023-04-22T00:51:18;100951.25;;;7.50;100.00
71774;BME280;59607;52.130;5.430;2023-04-22T00:53:44;100953.28;;;7.47;100.00
71774;BME280;59607;52.130;5.430;2023-04-22T00:56:11;100962.38;;;7.43;100.00
71774;BME280;59607;52.130;5.430;2023-04-22T00:58:43;100955.78;;;7.38;100.00
71774;BME280;59607;52.130;5.430;2023-04-22T01:01:09;100966.47;;;7.35;100.00
71774;BME280;59607;52.130;5.430;2023-04-22T01:03:46;100966.06;;;7.40;100.00
71774;BME280;59607;52.130;5.430;2023-04-22T01:06:16;100964.84;;;7.44;100.00
71774;BME280;59607;52.130;5.430;2023-04-22T01:08:50;100962.38;;;7.43;100.00
71774;BME280;59607;52.130;5.430;2023-04-22T01:11:16;100965.13;;;7.41;100.00
71774;BME280;59607;52.130;5.430;2023-04-22T01:13:43;100962.09;;;7.36;100.00
71774;BME280;59607;52.130;5.430;2023-04-22T01:16:14;100966.06;;;7.30;100.00
71774;BME280;59607;52.130;5.430;2023-04-22T01:18:41;100961.69;;;7.21;100.00
71774;BME280;59607;52.130;5.430;2023-04-22T01:21:15;100967.47;;;7.24;100.00
71774;BME280;59607;52.130;5.430;2023-04-22T01:23:42;100970.34;;;7.21;100.00
71774;BME280;59607;52.130;5.430;2023-04-22T01:26:08;100962.78;;;7.18;100.00
71774;BME280;59607;52.130;5.430;2023-04-22T01:28:39;100968.56;;;7.12;100.00
71774;BME280;59607;52.130;5.430;2023-04-22T01:31:05;100959.47;;;7.06;100.00
71774;BME280;59607;52.130;5.430;2023-04-22T01:33:32;100958.25;;;7.10;100.00
71774;BME280;59607;52.130;5.430;2023-04-22T01:36:06;100965.13;;;7.11;100.00
71774;BME280;59607;52.130;5.430;2023-04-22T01:38:33;100965.94;;;7.12;100.00
71774;BME280;59607;52.130;5.430;2023-04-22T01:41:01;100959.47;;;7.06;100.00
71774;BME280;59607;52.130;5.430;2023-04-22T01:43:29;100964.69;;;7.06;100.00
71774;BME280;59607;52.130;5.430;2023-04-22T01:46:04;100953.44;;;7.06;100.00
71774;BME280;59607;52.130;5.430;2023-04-22T01:48:31;100962.94;;;7.07;100.00
71774;BME280;59607;52.130;5.430;2023-04-22T01:50:57;100956.44;;;7.01;100.00
71774;BME280;59607;52.130;5.430;2023-04-22T01:53:24;100952.47;;;6.97;100.00
71774;BME280;59607;52.130;5.430;2023-04-22T01:55:56;100958.25;;;7.00;100.00
71774;BME280;59607;52.130;5.430;2023-04-22T01:58:23;100950.56;;;6.99;100.00
71774;BME280;59607;52.130;5.430;2023-04-22T02:00:52;100950.41;;;6.90;100.00
71774;BME280;59607;52.130;5.430;2023-04-22T02:03:19;100953.72;;;6.93;100.00
71774;BME280;59607;52.130;5.430;2023-04-22T02:05:46;100956.84;;;6.96;100.00
71774;BME280;59607;52.130;5.430;2023-04-22T02:08:12;100947.53;;;6.94;100.00
71774;BME280;59607;52.130;5.430;2023-04-22T02:10:56;100951.22;;;6.91;100.00
71774;BME280;59607;52.130;5.430;2023-04-22T02:13:36;100951.78;;;6.85;100.00
71774;BME280;59607;52.130;5.430;2023-04-22T02:16:07;100953.41;;;6.76;100.00
71774;BME280;59607;52.130;5.430;2023-04-22T02:18:33;100946.81;;;6.72;100.00
71774;BME280;59607;52.130;5.430;2023-04-22T02:21:06;100940.78;;;6.71;100.00
71774;BME280;59607;52.130;5.430;2023-04-22T02:23:36;100943.00;;;6.76;100.00
71774;BME280;59607;52.130;5.430;2023-04-22T02:26:08;100952.59;;;6.75;100.00
71774;BME280;59607;52.130;5.430;2023-04-22T02:28:37;100948.91;;;6.78;100.00
71774;BME280;59607;52.130;5.430;2023-04-22T02:31:10;100948.47;;;6.73;100.00
71774;BME280;59607;52.130;5.430;2023-04-22T02:33:36;100946.66;;;6.63;100.00
71774;BME280;59607;52.130;5.430;2023-04-22T02:36:03;100944.72;;;6.56;100.00
71774;BME280;59607;52.130;5.430;2023-04-22T02:38:29;100934.81;;;6.49;100.00
71774;BME280;59607;52.130;5.430;2023-04-22T02:40:56;100936.59;;;6.49;100.00
71774;BME280;59607;52.130;5.430;2023-04-22T02:43:22;100937.00;;;6.44;100.00
71774;BME280;59607;52.130;5.430;2023-04-22T02:45:49;100942.22;;;6.44;100.00
71774;BME280;59607;52.130;5.430;2023-04-22T02:48:16;100933.59;;;6.44;100.00
71774;BME280;59607;52.130;5.430;2023-04-22T02:50:59;100931.94;;;6.42;100.00
71774;BME280;59607;52.130;5.430;2023-04-22T02:53:28;100925.78;;;6.44;100.00
71774;BME280;59607;52.130;5.430;2023-04-22T02:55:54;100929.63;;;6.49;100.00
71774;BME280;59607;52.130;5.430;2023-04-22T02:58:27;100932.94;;;6.51;100.00
71774;BME280;59607;52.130;5.430;2023-04-22T03:01:00;100928.69;;;6.60;100.00
71774;BME280;59607;52.130;5.430;2023-04-22T03:03:39;100933.09;;;6.60;100.00
71774;BME280;59607;52.130;5.430;2023-04-22T03:06:06;100923.31;;;6.62;100.00
71774;BME280;59607;52.130;5.430;2023-04-22T03:08:38;100922.94;;;6.66;100.00
71774;BME280;59607;52.130;5.430;2023-04-22T03:11:04;100917.59;;;6.68;100.00
71774;BME280;59607;52.130;5.430;2023-04-22T03:13:33;100916.91;;;6.66;100.00
71774;BME280;59607;52.130;5.430;2023-04-22T03:16:03;100911.56;;;6.68;100.00
71774;BME280;59607;52.130;5.430;2023-04-22T03:18:29;100913.59;;;6.64;100.00
71774;BME280;59607;52.130;5.430;2023-04-22T03:20:59;100913.47;;;6.65;100.00
71774;BME280;59607;52.130;5.430;2023-04-22T03:23:33;100902.63;;;6.60;100.00
71774;BME280;59607;52.130;5.430;2023-04-22T03:26:02;100910.84;;;6.56;100.00
71774;BME280;59607;52.130;5.430;2023-04-22T03:28:36;100903.84;;;6.56;100.00
71774;BME280;59607;52.130;5.430;2023-04-22T03:31:05;100908.38;;;6.64;100.00
71774;BME280;59607;52.130;5.430;2023-04-22T03:33:34;100913.19;;;6.69;100.00
71774;BME280;59607;52.130;5.430;2023-04-22T03:36:01;100900.84;;;6.71;100.00
71774;BME280;59607;52.130;5.430;2023-04-22T03:38:41;100898.53;;;6.77;100.00
71774;BME280;59607;52.130;5.430;2023-04-22T03:41:10;100899.75;;;6.83;100.00
71774;BME280;59607;52.130;5.430;2023-04-22T03:43:36;100905.25;;;6.90;100.00
71774;BME280;59607;52.130;5.430;2023-04-22T03:46:02;100891.38;;;6.89;100.00
71774;BME280;59607;52.130;5.430;2023-04-22T03:48:29;100901.69;;;6.91;100.00
71774;BME280;59607;52.130;5.430;2023-04-22T03:51:01;100894.13;;;6.88;100.00
71774;BME280;59607;52.130;5.430;2023-04-22T03:53:28;100891.53;;;6.88;100.00
71774;BME280;59607;52.130;5.430;2023-04-22T03:55:54;100894.28;;;6.86;100.00
71774;BME280;59607;52.130;5.430;2023-04-22T03:58:26;100883.97;;;6.85;100.00
71774;BME280;59607;52.130;5.430;2023-04-22T04:00:53;100875.88;;;6.88;100.00
71774;BME280;59607;52.130;5.430;2023-04-22T04:03:28;100876.56;;;6.90;100.00
71774;BME280;59607;52.130;5.430;2023-04-22T04:05:56;100872.34;;;6.99;100.00
71774;BME280;59607;52.130;5.430;2023-04-22T04:08:27;100870.53;;;6.99;100.00
71774;BME280;59607;52.130;5.430;2023-04-22T04:10:57;100871.09;;;7.03;100.00
71774;BME280;59607;52.130;5.430;2023-04-22T04:13:24;100866.28;;;7.08;100.00
71774;BME280;59607;52.130;5.430;2023-04-22T04:15:50;100862.28;;;7.04;100.00
71774;BME280;59607;52.130;5.430;2023-04-22T04:18:24;100856.13;;;7.05;100.00
71774;BME280;59607;52.130;5.430;2023-04-22T04:20:58;100855.16;;;7.06;100.00
71774;BME280;59607;52.130;5.430;2023-04-22T04:23:24;100859.44;;;7.07;100.00
71774;BME280;59607;52.130;5.430;2023-04-22T04:25:53;100859.94;;;7.11;100.00
71774;BME280;59607;52.130;5.430;2023-04-22T04:28:25;100854.31;;;7.06;100.00
71774;BME280;59607;52.130;5.430;2023-04-22T04:30:55;100857.63;;;7.08;100.00
71774;BME280;59607;52.130;5.430;2023-04-22T04:33:28;100855.84;;;7.08;100.00
71774;BME280;59607;52.130;5.430;2023-04-22T04:36:00;100853.66;;;7.13;100.00
71774;BME280;59607;52.130;5.430;2023-04-22T04:38:30;100855.16;;;7.16;100.00
71774;BME280;59607;52.130;5.430;2023-04-22T04:40:56;100861.84;;;7.19;100.00
71774;BME280;59607;52.130;5.430;2023-04-22T04:43:25;100855.69;;;7.20;100.00
71774;BME280;59607;52.130;5.430;2023-04-22T04:45:52;100872.72;;;7.24;100.00
71774;BME280;59607;52.130;5.430;2023-04-22T04:48:18;100868.59;;;7.21;100.00
71774;BME280;59607;52.130;5.430;2023-04-22T04:50:50;100853.09;;;7.20;100.00
71774;BME280;59607;52.130;5.430;2023-04-22T04:53:22;100846.75;;;7.22;100.00
71774;BME280;59607;52.130;5.430;2023-04-22T04:55:50;100843.06;;;7.25;100.00
71774;BME280;59607;52.130;5.430;2023-04-22T04:58:34;100833.00;;;7.30;100.00
71774;BME280;59607;52.130;5.430;2023-04-22T05:01:10;100837.94;;;7.33;100.00
71774;BME280;59607;52.130;5.430;2023-04-22T05:03:39;100838.34;;;7.38;100.00
71774;BME280;59607;52.130;5.430;2023-04-22T05:06:13;100836.97;;;7.44;100.00
71774;BME280;59607;52.130;5.430;2023-04-22T05:08:46;100840.50;;;7.53;100.00
71774;BME280;59607;52.130;5.430;2023-04-22T05:11:12;100849.03;;;7.55;100.00
71774;BME280;59607;52.130;5.430;2023-04-22T05:13:38;100842.69;;;7.58;100.00
71774;BME280;59607;52.130;5.430;2023-04-22T05:16:05;100842.25;;;7.62;100.00
71774;BME280;59607;52.130;5.430;2023-04-22T05:18:35;100843.78;;;7.65;100.00
71774;BME280;59607;52.130;5.430;2023-04-22T05:21:05;100846.78;;;7.70;100.00
71774;BME280;59607;52.130;5.430;2023-04-22T05:23:38;100851.72;;;7.73;100.00
71774;BME280;59607;52.130;5.430;2023-04-22T05:26:04;100851.72;;;7.73;100.00
71774;BME280;59607;52.130;5.430;2023-04-22T05:28:37;100848.38;;;7.81;100.00
71774;BME280;59607;52.130;5.430;2023-04-22T05:31:03;100849.28;;;7.90;100.00
71774;BME280;59607;52.130;5.430;2023-04-22T05:33:30;100853.41;;;7.93;100.00
71774;BME280;59607;52.130;5.430;2023-04-22T05:36:16;100854.59;;;7.98;100.00
71774;BME280;59607;52.130;5.430;2023-04-22T05:38:47;100850.06;;;8.00;100.00
71774;BME280;59607;52.130;5.430;2023-04-22T05:41:13;100857.63;;;8.03;100.00
71774;BME280;59607;52.130;5.430;2023-04-22T05:43:59;100855.97;;;8.02;100.00
71774;BME280;59607;52.130;5.430;2023-04-22T05:46:28;100858.00;;;8.09;100.00
71774;BME280;59607;52.130;5.430;2023-04-22T05:48:54;100850.41;;;8.15;100.00
71774;BME280;59607;52.130;5.430;2023-04-22T05:51:29;100856.97;;;8.20;100.00
71774;BME280;59607;52.130;5.430;2023-04-22T05:53:56;100856.38;;;8.26;100.00
71774;BME280;59607;52.130;5.430;2023-04-22T05:56:25;100848.63;;;8.34;100.00
71774;BME280;59607;52.130;5.430;2023-04-22T05:58:55;100856.88;;;8.39;100.00
71774;BME280;59607;52.130;5.430;2023-04-22T06:01:21;100842.31;;;8.37;100.00
71774;BME280;59607;52.130;5.430;2023-04-22T06:03:52;100853.88;;;8.34;100.00
71774;BME280;59607;52.130;5.430;2023-04-22T06:06:23;100847.66;;;8.35;100.00
71774;BME280;59607;52.130;5.430;2023-04-22T06:08:55;100854.03;;;8.51;100.00
71774;BME280;59607;52.130;5.430;2023-04-22T06:11:21;100854.72;;;8.53;100.00
71774;BME280;59607;52.130;5.430;2023-04-22T06:13:48;100852.19;;;8.61;100.00
71774;BME280;59607;52.130;5.430;2023-04-22T06:16:19;100848.41;;;8.74;100.00
71774;BME280;59607;52.130;5.430;2023-04-22T06:18:45;100839.13;;;8.80;100.00
71774;BME280;59607;52.130;5.430;2023-04-22T06:21:11;100843.13;;;8.92;100.00
71774;BME280;59607;52.130;5.430;2023-04-22T06:23:38;100844.78;;;9.11;100.00
71774;BME280;59607;52.130;5.430;2023-04-22T06:26:10;100845.25;;;9.15;100.00
71774;BME280;59607;52.130;5.430;2023-04-22T06:28:36;100826.47;;;9.20;100.00
71774;BME280;59607;52.130;5.430;2023-04-22T06:31:03;100833.91;;;9.24;100.00
71774;BME280;59607;52.130;5.430;2023-04-22T06:33:36;100823.91;;;9.28;100.00
71774;BME280;59607;52.130;5.430;2023-04-22T06:36:04;100827.69;;;9.25;100.00
71774;BME280;59607;52.130;5.430;2023-04-22T06:38:32;100824.81;;;9.37;100.00
71774;BME280;59607;52.130;5.430;2023-04-22T06:40:58;100819.66;;;9.54;100.00
71774;BME280;59607;52.130;5.430;2023-04-22T06:43:25;100816.75;;;9.65;100.00
71774;BME280;59607;52.130;5.430;2023-04-22T06:45:54;100809.91;;;9.72;100.00
71774;BME280;59607;52.130;5.430;2023-04-22T06:48:24;100806.97;;;9.75;100.00
71774;BME280;59607;52.130;5.430;2023-04-22T06:50:55;100796.56;;;10.09;100.00
71774;BME280;59607;52.130;5.430;2023-04-22T06:53:27;100800.72;;;10.28;100.00
71774;BME280;59607;52.130;5.430;2023-04-22T06:55:54;100804.16;;;10.37;100.00
71774;BME280;59607;52.130;5.430;2023-04-22T06:58:36;100797.81;;;10.48;100.00
71774;BME280;59607;52.130;5.430;2023-04-22T07:01:05;100803.56;;;10.52;100.00
71774;BME280;59607;52.130;5.430;2023-04-22T07:03:34;100795.53;;;10.53;100.00
71774;BME280;59607;52.130;5.430;2023-04-22T07:06:01;100788.16;;;10.73;100.00
71774;BME280;59607;52.130;5.430;2023-04-22T07:08:34;100784.72;;;10.90;100.00
71774;BME280;59607;52.130;5.430;2023-04-22T07:11:01;100784.03;;;11.04;100.00
71774;BME280;59607;52.130;5.430;2023-04-22T07:13:27;100781.88;;;11.08;100.00
71774;BME280;59607;52.130;5.430;2023-04-22T07:15:54;100780.91;;;11.09;100.00
71774;BME280;59607;52.130;5.430;2023-04-22T07:18:24;100782.69;;;11.17;100.00
71774;BME280;59607;52.130;5.430;2023-04-22T07:20:53;100788.84;;;11.32;100.00
71774;BME280;59607;52.130;5.430;2023-04-22T07:23:23;100793.72;;;11.52;100.00
71774;BME280;59607;52.130;5.430;2023-04-22T07:25:50;100784.97;;;11.68;100.00
71774;BME280;59607;52.130;5.430;2023-04-22T07:28:21;100788.41;;;11.69;100.00
71774;BME280;59607;52.130;5.430;2023-04-22T07:30:50;100784.13;;;11.68;100.00
71774;BME280;59607;52.130;5.430;2023-04-22T07:33:17;100788.38;;;11.77;100.00
71774;BME280;59607;52.130;5.430;2023-04-22T07:35:50;100787.16;;;11.88;100.00
71774;BME280;59607;52.130;5.430;2023-04-22T07:38:16;100781.09;;;12.43;100.00
71774;BME280;59607;52.130;5.430;2023-04-22T07:40:43;100764.13;;;12.84;100.00
71774;BME280;59607;52.130;5.430;2023-04-22T07:43:18;100765.03;;;12.91;100.00
71774;BME280;59607;52.130;5.430;2023-04-22T07:45:49;100769.22;;;12.86;100.00
71774;BME280;59607;52.130;5.430;2023-04-22T07:48:16;100783.94;;;12.95;100.00
71774;BME280;59607;52.130;5.430;2023-04-22T07:50:43;100787.66;;;13.16;100.00
71774;BME280;59607;52.130;5.430;2023-04-22T07:53:10;100783.41;;;13.15;100.00
71774;BME280;59607;52.130;5.430;2023-04-22T07:55:41;100790.09;;;13.17;100.00
71774;BME280;59607;52.130;5.430;2023-04-22T07:58:08;100780.69;;;13.23;100.00
71774;BME280;59607;52.130;5.430;2023-04-22T08:00:35;100788.03;;;13.43;100.00
71774;BME280;59607;52.130;5.430;2023-04-22T08:03:07;100793.75;;;13.62;100.00
71774;BME280;59607;52.130;5.430;2023-04-22T08:05:34;100791.88;;;13.92;100.00
71774;BME280;59607;52.130;5.430;2023-04-22T08:08:09;100795.22;;;14.23;100.00
71774;BME280;59607;52.130;5.430;2023-04-22T08:10:35;100795.88;;;14.25;100.00
71774;BME280;59607;52.130;5.430;2023-04-22T08:13:07;100795.22;;;14.23;100.00
71774;BME280;59607;52.130;5.430;2023-04-22T08:15:46;100782.78;;;14.39;100.00
71774;BME280;59607;52.130;5.430;2023-04-22T08:18:14;100772.47;;;14.66;100.00
71774;BME280;59607;52.130;5.430;2023-04-22T08:20:40;100755.53;;;14.82;98.66
71774;BME280;59607;52.130;5.430;2023-04-22T08:23:08;100754.91;;;14.80;100.00
71774;BME280;59607;52.130;5.430;2023-04-22T08:25:40;100753.06;;;15.09;96.72
71774;BME280;59607;52.130;5.430;2023-04-22T08:28:07;100756.38;;;15.25;97.58
71774;BME280;59607;52.130;5.430;2023-04-22T08:30:36;100752.91;;;15.17;92.63
71774;BME280;59607;52.130;5.430;2023-04-22T08:33:02;100730.38;;;14.86;96.51
71774;BME280;59607;52.130;5.430;2023-04-22T08:35:29;100729.72;;;15.13;97.36
71774;BME280;59607;52.130;5.430;2023-04-22T08:38:01;100725.06;;;15.22;93.09
71774;BME280;59607;52.130;5.430;2023-04-22T08:40:30;100722.03;;;15.25;95.58
71774;BME280;59607;52.130;5.430;2023-04-22T08:42:57;100723.97;;;15.51;92.11
71774;BME280;59607;52.130;5.430;2023-04-22T08:45:33;100722.34;;;15.57;90.94
71774;BME280;59607;52.130;5.430;2023-04-22T08:48:01;100723.59;;;15.61;92.80
71774;BME280;59607;52.130;5.430;2023-04-22T08:50:37;100723.19;;;15.64;87.13
71774;BME280;59607;52.130;5.430;2023-04-22T08:53:26;100718.13;;;15.70;86.63
71774;BME280;59607;52.130;5.430;2023-04-22T08:55:56;100724.22;;;15.70;80.85
71774;BME280;59607;52.130;5.430;2023-04-22T08:58:23;100721.19;;;15.87;84.68
71774;BME280;59607;52.130;5.430;2023-04-22T09:00:53;100713.13;;;16.02;85.50
71774;BME280;59607;52.130;5.430;2023-04-22T09:03:25;100713.34;;;16.07;85.27
71774;BME280;59607;52.130;5.430;2023-04-22T09:05:54;100720.44;;;16.00;81.54
71774;BME280;59607;52.130;5.430;2023-04-22T09:08:25;100719.44;;;16.01;80.08
71774;BME280;59607;52.130;5.430;2023-04-22T09:10:54;100714.75;;;16.16;82.93
71774;BME280;59607;52.130;5.430;2023-04-22T09:13:28;100705.34;;;16.61;78.06
71774;BME280;59607;52.130;5.430;2023-04-22T09:15:57;100698.44;;;16.67;76.60
71774;BME280;59607;52.130;5.430;2023-04-22T09:18:38;100695.34;;;16.77;80.37
71774;BME280;59607;52.130;5.430;2023-04-22T09:21:05;100691.88;;;16.83;77.55
71774;BME280;59607;52.130;5.430;2023-04-22T09:23:32;100685.53;;;16.84;75.92
71774;BME280;59607;52.130;5.430;2023-04-22T09:25:58;100680.78;;;17.13;77.84
71774;BME280;59607;52.130;5.430;2023-04-22T09:28:27;100680.31;;;17.23;74.16
71774;BME280;59607;52.130;5.430;2023-04-22T09:30:59;100686.69;;;17.02;73.45
71774;BME280;59607;52.130;5.430;2023-04-22T09:33:25;100676.41;;;16.73;73.83
71774;BME280;59607;52.130;5.430;2023-04-22T09:36:07;100665.06;;;17.05;76.46
71774;BME280;59607;52.130;5.430;2023-04-22T09:38:49;100676.13;;;17.48;74.77
71774;BME280;59607;52.130;5.430;2023-04-22T09:41:38;100675.25;;;17.54;73.96
71774;BME280;59607;52.130;5.430;2023-04-22T09:44:14;100668.78;;;17.50;72.54
71774;BME280;59607;52.130;5.430;2023-04-22T09:46:46;100645.41;;;17.91;73.08
71774;BME280;59607;52.130;5.430;2023-04-22T09:49:36;100646.25;;;17.92;70.57
71774;BME280;59607;52.130;5.430;2023-04-22T09:52:09;100645.75;;;17.76;71.24
71774;BME280;59607;52.130;5.430;2023-04-22T09:54:36;100649.94;;;17.91;71.05
71774;BME280;59607;52.130;5.430;2023-04-22T09:57:10;100659.53;;;18.10;71.53
71774;BME280;59607;52.130;5.430;2023-04-22T09:59:41;100641.47;;;18.26;71.06
71774;BME280;59607;52.130;5.430;2023-04-22T10:02:13;100644.25;;;18.12;69.26
71774;BME280;59607;52.130;5.430;2023-04-22T10:04:40;100652.41;;;18.11;69.42
71774;BME280;59607;52.130;5.430;2023-04-22T10:07:11;100647.50;;;18.15;70.33
71774;BME280;59607;52.130;5.430;2023-04-22T10:09:42;100644.56;;;18.23;69.16
71774;BME280;59607;52.130;5.430;2023-04-22T10:12:13;100640.16;;;18.35;69.97
71774;BME280;59607;52.130;5.430;2023-04-22T10:14:49;100637.44;;;18.42;68.71
71774;BME280;59607;52.130;5.430;2023-04-22T10:17:23;100631.25;;;18.48;66.83
71774;BME280;59607;52.130;5.430;2023-04-22T10:19:50;100628.22;;;18.64;67.46
71774;BME280;59607;52.130;5.430;2023-04-22T10:22:26;100631.09;;;18.62;67.49
71774;BME280;59607;52.130;5.430;2023-04-22T10:24:52;100634.41;;;18.57;67.20
71774;BME280;59607;52.130;5.430;2023-04-22T10:27:39;100648.63;;;18.25;68.82
71774;BME280;59607;52.130;5.430;2023-04-22T10:30:10;100643.09;;;18.01;71.39
71774;BME280;59607;52.130;5.430;2023-04-22T10:32:36;100650.94;;;18.15;72.67
71774;BME280;59607;52.130;5.430;2023-04-22T10:35:17;100652.91;;;18.27;71.22
71774;BME280;59607;52.130;5.430;2023-04-22T10:38:06;100644.66;;;18.09;73.62
71774;BME280;59607;52.130;5.430;2023-04-22T10:40:35;100650.47;;;18.25;73.24
71774;BME280;59607;52.130;5.430;2023-04-22T10:43:02;100647.50;;;18.15;71.21
71774;BME280;59607;52.130;5.430;2023-04-22T10:45:31;100647.53;;;18.08;70.71
71774;BME280;59607;52.130;5.430;2023-04-22T10:48:03;100650.09;;;18.21;71.18
71774;BME280;59607;52.130;5.430;2023-04-22T10:50:31;100658.59;;;18.30;70.40
71774;BME280;59607;52.130;5.430;2023-04-22T10:53:37;100650.00;;;18.54;71.38
71774;BME280;59607;52.130;5.430;2023-04-22T10:56:17;100656.72;;;18.75;71.28
71774;BME280;59607;52.130;5.430;2023-04-22T10:58:48;100652.41;;;18.93;69.54
71774;BME280;59607;52.130;5.430;2023-04-22T11:01:17;100647.84;;;19.31;65.66
71774;BME280;59607;52.130;5.430;2023-04-22T11:03:50;100653.63;;;19.28;69.81
71774;BME280;59607;52.130;5.430;2023-04-22T11:06:22;100656.66;;;19.13;66.77
71774;BME280;59607;52.130;5.430;2023-04-22T11:09:15;100659.78;;;18.91;69.89
71774;BME280;59607;52.130;5.430;2023-04-22T11:11:42;100668.50;;;18.79;71.30
71774;BME280;59607;52.130;5.430;2023-04-22T11:14:14;100660.09;;;18.82;71.15
71774;BME280;59607;52.130;5.430;2023-04-22T11:16:45;100660.75;;;18.78;70.54
71774;BME280;59607;52.130;5.430;2023-04-22T11:19:13;100657.56;;;18.69;69.08
71774;BME280;59607;52.130;5.430;2023-04-22T11:21:44;100668.56;;;18.72;71.76
71774;BME280;59607;52.130;5.430;2023-04-22T11:24:17;100657.06;;;18.79;69.36
71774;BME280;59607;52.130;5.430;2023-04-22T11:26:47;100653.72;;;18.83;68.81
71774;BME280;59607;52.130;5.430;2023-04-22T11:29:13;100651.88;;;18.84;66.32
71774;BME280;59607;52.130;5.430;2023-04-22T11:31:47;100651.06;;;18.83;67.72
71774;BME280;59607;52.130;5.430;2023-04-22T11:34:16;100660.28;;;18.99;67.83
71774;BME280;59607;52.130;5.430;2023-04-22T11:36:48;100661.25;;;18.86;67.58
71774;BME280;59607;52.130;5.430;2023-04-22T11:39:14;100661.34;;;18.61;69.17
71774;BME280;59607;52.130;5.430;2023-04-22T11:41:46;100667.22;;;18.44;68.94
71774;BME280;59607;52.130;5.430;2023-04-22T11:44:15;100664.72;;;18.05;71.11
71774;BME280;59607;52.130;5.430;2023-04-22T11:46:55;100667.78;;;17.76;73.01
71774;BME280;59607;52.130;5.430;2023-04-22T11:49:23;100665.69;;;17.53;76.36
71774;BME280;59607;52.130;5.430;2023-04-22T11:51:56;100669.06;;;17.35;83.80
71774;BME280;59607;52.130;5.430;2023-04-22T11:54:38;100676.31;;;17.00;87.61
71774;BME280;59607;52.130;5.430;2023-04-22T11:57:06;100693.50;;;16.77;94.21
71774;BME280;59607;52.130;5.430;2023-04-22T12:00:06;100673.19;;;16.51;94.16
71774;BME280;59607;52.130;5.430;2023-04-22T12:02:59;100689.31;;;16.36;96.78
71774;BME280;59607;52.130;5.430;2023-04-22T12:05:46;100689.13;;;16.17;97.67
71774;BME280;59607;52.130;5.430;2023-04-22T12:08:18;100684.81;;;15.96;100.00
71774;BME280;59607;52.130;5.430;2023-04-22T12:11:04;100680.31;;;15.89;100.00
71774;BME280;59607;52.130;5.430;2023-04-22T12:13:42;100687.63;;;15.87;100.00
71774;BME280;59607;52.130;5.430;2023-04-22T12:16:18;100678.66;;;15.82;100.00
71774;BME280;59607;52.130;5.430;2023-04-22T12:18:53;100687.38;;;15.69;100.00
71774;BME280;59607;52.130;5.430;2023-04-22T12:21:28;100681.50;;;15.66;100.00
71774;BME280;59607;52.130;5.430;2023-04-22T12:24:02;100687.78;;;15.65;100.00
71774;BME280;59607;52.130;5.430;2023-04-22T12:26:35;100685.78;;;15.67;100.00
71774;BME280;59607;52.130;5.430;2023-04-22T12:29:03;100691.03;;;15.61;100.00
71774;BME280;59607;52.130;5.430;2023-04-22T12:31:32;100686.19;;;15.64;100.00
71774;BME280;59607;52.130;5.430;2023-04-22T12:34:02;100686.81;;;15.80;100.00
71774;BME280;59607;52.130;5.430;2023-04-22T12:36:30;100697.41;;;15.87;100.00
71774;BME280;59607;52.130;5.430;2023-04-22T12:39:04;100696.16;;;15.76;100.00
71774;BME280;59607;52.130;5.430;2023-04-22T12:41:32;100696.72;;;15.58;100.00
71774;BME280;59607;52.130;5.430;2023-04-22T12:44:01;100690.59;;;15.44;100.00
71774;BME280;59607;52.130;5.430;2023-04-22T12:46:36;100693.84;;;15.39;100.00
71774;BME280;59607;52.130;5.430;2023-04-22T12:49:08;100698.69;;;15.35;100.00
71774;BME280;59607;52.130;5.430;2023-04-22T12:51:35;100694.81;;;15.24;100.00
71774;BME280;59607;52.130;5.430;2023-04-22T12:54:01;100694.75;;;15.11;100.00
71774;BME280;59607;52.130;5.430;2023-04-22T12:56:28;100692.84;;;14.98;100.00
71774;BME280;59607;52.130;5.430;2023-04-22T12:58:54;100688.81;;;15.02;100.00
71774;BME280;59607;52.130;5.430;2023-04-22T13:01:21;100692.47;;;15.01;100.00
71774;BME280;59607;52.130;5.430;2023-04-22T13:03:47;100691.44;;;14.95;100.00
71774;BME280;59607;52.130;5.430;2023-04-22T13:06:27;100694.84;;;14.89;100.00